sensor_id;sensor_type;location;lat;lon;timestamp;temperature;humidity
21275;DHT22;36472;52.170;20.884;2023-06-22T00:00:43;34.60;57.70
21275;DHT22;36472;52.170;20.884;2023-06-22T00:03:29;34.60;58.00
21275;DHT22;36472;52.170;20.884;2023-06-22T00:05:59;34.60;57.90
21275;DHT22;36472;52.170;20.884;2023-06-22T00:08:29;34.60;58.10
21275;DHT22;36472;52.170;20.884;2023-06-22T00:10:58;34.60;57.80
21275;DHT22;36472;52.170;20.884;2023-06-22T00:13:28;34.60;57.80
21275;DHT22;36472;52.170;20.884;2023-06-22T00:15:56;34.60;57.90
21275;DHT22;36472;52.170;20.884;2023-06-22T00:18:26;34.60;57.70
21275;DHT22;36472;52.170;20.884;2023-06-22T00:20:55;34.60;57.80
21275;DHT22;36472;52.170;20.884;2023-06-22T00:23:26;34.50;58.00
21275;DHT22;36472;52.170;20.884;2023-06-22T00:25:56;34.60;58.00
21275;DHT22;36472;52.170;20.884;2023-06-22T00:28:25;34.50;58.00
21275;DHT22;36472;52.170;20.884;2023-06-22T00:30:54;34.50;58.00
21275;DHT22;36472;52.170;20.884;2023-06-22T00:33:25;34.50;57.90
21275;DHT22;36472;52.170;20.884;2023-06-22T00:35:55;34.50;57.90
21275;DHT22;36472;52.170;20.884;2023-06-22T00:38:24;34.50;57.80
21275;DHT22;36472;52.170;20.884;2023-06-22T00:40:53;34.40;57.80
21275;DHT22;36472;52.170;20.884;2023-06-22T00:43:24;34.40;58.00
21275;DHT22;36472;52.170;20.884;2023-06-22T00:45:55;34.40;58.10
21275;DHT22;36472;52.170;20.884;2023-06-22T00:48:25;34.40;57.90
21275;DHT22;36472;52.170;20.884;2023-06-22T00:50:54;34.30;57.80
21275;DHT22;36472;52.170;20.884;2023-06-22T00:53:24;34.30;57.60
21275;DHT22;36472;52.170;20.884;2023-06-22T00:55:54;34.30;57.60
21275;DHT22;36472;52.170;20.884;2023-06-22T00:58:27;34.40;57.80
21275;DHT22;36472;52.170;20.884;2023-06-22T01:00:56;34.30;57.50
21275;DHT22;36472;52.170;20.884;2023-06-22T01:03:27;34.40;57.70
21275;DHT22;36472;52.170;20.884;2023-06-22T01:06:09;34.30;57.30
21275;DHT22;36472;52.170;20.884;2023-06-22T01:08:49;34.30;57.50
21275;DHT22;36472;52.170;20.884;2023-06-22T01:11:28;34.30;57.60
21275;DHT22;36472;52.170;20.884;2023-06-22T01:14:09;34.20;57.50
21275;DHT22;36472;52.170;20.884;2023-06-22T01:16:44;34.20;57.60
21275;DHT22;36472;52.170;20.884;2023-06-22T01:19:35;34.20;57.70
21275;DHT22;36472;52.170;20.884;2023-06-22T01:22:10;34.20;58.00
21275;DHT22;36472;52.170;20.884;2023-06-22T01:24:51;34.20;58.00
21275;DHT22;36472;52.170;20.884;2023-06-22T01:27:33;34.20;57.90
21275;DHT22;36472;52.170;20.884;2023-06-22T01:30:11;34.20;58.10
21275;DHT22;36472;52.170;20.884;2023-06-22T01:32:44;34.20;58.00
21275;DHT22;36472;52.170;20.884;2023-06-22T01:35:16;34.10;57.80
21275;DHT22;36472;52.170;20.884;2023-06-22T01:37:47;34.10;57.80
21275;DHT22;36472;52.170;20.884;2023-06-22T01:40:19;34.20;57.60
21275;DHT22;36472;52.170;20.884;2023-06-22T01:42:51;34.20;57.70
21275;DHT22;36472;52.170;20.884;2023-06-22T01:45:23;34.10;58.00
21275;DHT22;36472;52.170;20.884;2023-06-22T01:47:54;34.10;57.70
21275;DHT22;36472;52.170;20.884;2023-06-22T01:50:24;34.10;57.60
21275;DHT22;36472;52.170;20.884;2023-06-22T01:52:55;34.10;57.90
21275;DHT22;36472;52.170;20.884;2023-06-22T01:55:26;34.10;58.10
21275;DHT22;36472;52.170;20.884;2023-06-22T01:57:55;34.10;57.90
21275;DHT22;36472;52.170;20.884;2023-06-22T02:00:28;34.10;57.70
21275;DHT22;36472;52.170;20.884;2023-06-22T02:03:07;34.10;57.70
21275;DHT22;36472;52.170;20.884;2023-06-22T02:05:45;34.10;57.90
21275;DHT22;36472;52.170;20.884;2023-06-22T02:08:20;34.10;58.00
21275;DHT22;36472;52.170;20.884;2023-06-22T02:10:52;34.10;58.00
21275;DHT22;36472;52.170;20.884;2023-06-22T02:13:24;34.10;58.00
21275;DHT22;36472;52.170;20.884;2023-06-22T02:20:28;34.10;58.30
21275;DHT22;36472;52.170;20.884;2023-06-22T02:22:57;34.20;58.20
21275;DHT22;36472;52.170;20.884;2023-06-22T02:25:26;34.20;58.50
21275;DHT22;36472;52.170;20.884;2023-06-22T02:27:55;34.20;58.60
21275;DHT22;36472;52.170;20.884;2023-06-22T02:30:25;34.20;58.60
21275;DHT22;36472;52.170;20.884;2023-06-22T02:32:54;34.20;58.70
21275;DHT22;36472;52.170;20.884;2023-06-22T02:35:29;34.30;58.90
21275;DHT22;36472;52.170;20.884;2023-06-22T02:38:00;34.30;59.10
21275;DHT22;36472;52.170;20.884;2023-06-22T02:40:29;34.30;59.10
21275;DHT22;36472;52.170;20.884;2023-06-22T02:42:59;34.30;59.10
21275;DHT22;36472;52.170;20.884;2023-06-22T02:45:31;34.40;59.20
21275;DHT22;36472;52.170;20.884;2023-06-22T02:48:00;34.30;59.10
21275;DHT22;36472;52.170;20.884;2023-06-22T02:50:30;34.30;59.20
21275;DHT22;36472;52.170;20.884;2023-06-22T02:53:00;34.30;59.10
21275;DHT22;36472;52.170;20.884;2023-06-22T02:55:32;34.40;59.30
21275;DHT22;36472;52.170;20.884;2023-06-22T02:58:01;34.40;59.30
21275;DHT22;36472;52.170;20.884;2023-06-22T03:00:35;34.40;59.20
21275;DHT22;36472;52.170;20.884;2023-06-22T03:03:04;34.40;59.10
21275;DHT22;36472;52.170;20.884;2023-06-22T03:05:34;34.40;59.20
21275;DHT22;36472;52.170;20.884;2023-06-22T03:08:04;34.40;59.20
21275;DHT22;36472;52.170;20.884;2023-06-22T03:10:35;34.40;59.20
21275;DHT22;36472;52.170;20.884;2023-06-22T03:13:04;34.40;59.20
21275;DHT22;36472;52.170;20.884;2023-06-22T03:15:34;34.40;59.20
21275;DHT22;36472;52.170;20.884;2023-06-22T03:18:03;34.40;59.30
21275;DHT22;36472;52.170;20.884;2023-06-22T03:20:34;34.50;59.20
21275;DHT22;36472;52.170;20.884;2023-06-22T03:23:02;34.50;59.00
21275;DHT22;36472;52.170;20.884;2023-06-22T03:25:33;34.50;59.00
21275;DHT22;36472;52.170;20.884;2023-06-22T03:28:02;34.50;58.90
21275;DHT22;36472;52.170;20.884;2023-06-22T03:30:32;34.50;59.00
21275;DHT22;36472;52.170;20.884;2023-06-22T03:33:00;34.50;58.90
21275;DHT22;36472;52.170;20.884;2023-06-22T03:35:30;34.50;59.00
21275;DHT22;36472;52.170;20.884;2023-06-22T03:38:01;34.50;59.00
21275;DHT22;36472;52.170;20.884;2023-06-22T03:40:31;34.50;58.90
21275;DHT22;36472;52.170;20.884;2023-06-22T03:43:00;34.50;59.00
21275;DHT22;36472;52.170;20.884;2023-06-22T03:45:30;34.50;59.00
21275;DHT22;36472;52.170;20.884;2023-06-22T03:47:59;34.50;59.10
21275;DHT22;36472;52.170;20.884;2023-06-22T03:50:29;34.50;59.00
21275;DHT22;36472;52.170;20.884;2023-06-22T03:52:58;34.60;59.10
21275;DHT22;36472;52.170;20.884;2023-06-22T03:55:29;34.60;59.00
21275;DHT22;36472;52.170;20.884;2023-06-22T03:57:58;34.60;59.00
21275;DHT22;36472;52.170;20.884;2023-06-22T04:00:33;34.60;58.70
21275;DHT22;36472;52.170;20.884;2023-06-22T04:03:02;34.60;59.00
21275;DHT22;36472;52.170;20.884;2023-06-22T04:05:31;34.60;59.00
21275;DHT22;36472;52.170;20.884;2023-06-22T04:08:00;34.60;58.90
21275;DHT22;36472;52.170;20.884;2023-06-22T04:10:30;34.70;58.90
21275;DHT22;36472;52.170;20.884;2023-06-22T04:12:59;34.70;59.00
21275;DHT22;36472;52.170;20.884;2023-06-22T04:15:28;34.70;58.90
21275;DHT22;36472;52.170;20.884;2023-06-22T04:17:57;34.70;58.90
21275;DHT22;36472;52.170;20.884;2023-06-22T04:20:26;34.70;59.20
21275;DHT22;36472;52.170;20.884;2023-06-22T04:22:56;34.70;59.00
21275;DHT22;36472;52.170;20.884;2023-06-22T04:25:25;34.70;58.70
21275;DHT22;36472;52.170;20.884;2023-06-22T04:27:55;34.80;58.60
21275;DHT22;36472;52.170;20.884;2023-06-22T04:30:25;34.80;58.70
21275;DHT22;36472;52.170;20.884;2023-06-22T04:32:54;34.80;58.50
21275;DHT22;36472;52.170;20.884;2023-06-22T04:35:25;34.80;58.60
21275;DHT22;36472;52.170;20.884;2023-06-22T04:37:57;34.90;58.50
21275;DHT22;36472;52.170;20.884;2023-06-22T04:40:27;34.90;58.40
21275;DHT22;36472;52.170;20.884;2023-06-22T04:42:57;34.90;58.30
21275;DHT22;36472;52.170;20.884;2023-06-22T04:50:02;34.90;58.50
21275;DHT22;36472;52.170;20.884;2023-06-22T04:52:33;35.00;58.30
21275;DHT22;36472;52.170;20.884;2023-06-22T04:55:02;35.00;58.40
21275;DHT22;36472;52.170;20.884;2023-06-22T04:57:31;34.90;58.10
21275;DHT22;36472;52.170;20.884;2023-06-22T05:00:03;35.00;58.10
21275;DHT22;36472;52.170;20.884;2023-06-22T05:02:44;34.90;57.90
21275;DHT22;36472;52.170;20.884;2023-06-22T05:05:15;35.00;58.30
21275;DHT22;36472;52.170;20.884;2023-06-22T05:07:46;35.00;58.40
21275;DHT22;36472;52.170;20.884;2023-06-22T05:10:18;35.00;58.50
21275;DHT22;36472;52.170;20.884;2023-06-22T05:12:48;35.00;58.30
21275;DHT22;36472;52.170;20.884;2023-06-22T05:15:18;35.00;58.40
21275;DHT22;36472;52.170;20.884;2023-06-22T05:17:47;35.10;58.40
21275;DHT22;36472;52.170;20.884;2023-06-22T05:20:16;35.10;58.10
21275;DHT22;36472;52.170;20.884;2023-06-22T05:22:46;35.10;58.20
21275;DHT22;36472;52.170;20.884;2023-06-22T05:25:15;35.10;58.00
21275;DHT22;36472;52.170;20.884;2023-06-22T05:27:44;35.20;58.00
21275;DHT22;36472;52.170;20.884;2023-06-22T05:30:13;35.10;58.10
21275;DHT22;36472;52.170;20.884;2023-06-22T05:32:47;35.20;58.10
21275;DHT22;36472;52.170;20.884;2023-06-22T05:35:16;35.20;58.20
21275;DHT22;36472;52.170;20.884;2023-06-22T05:37:45;35.20;58.00
21275;DHT22;36472;52.170;20.884;2023-06-22T05:40:14;35.20;57.90
21275;DHT22;36472;52.170;20.884;2023-06-22T05:42:43;35.20;58.10
21275;DHT22;36472;52.170;20.884;2023-06-22T05:45:12;35.20;58.00
21275;DHT22;36472;52.170;20.884;2023-06-22T05:47:41;35.30;58.00
21275;DHT22;36472;52.170;20.884;2023-06-22T05:50:12;35.30;58.00
21275;DHT22;36472;52.170;20.884;2023-06-22T05:52:40;35.30;57.70
21275;DHT22;36472;52.170;20.884;2023-06-22T05:55:09;35.30;57.40
21275;DHT22;36472;52.170;20.884;2023-06-22T06:02:10;35.40;57.30
21275;DHT22;36472;52.170;20.884;2023-06-22T06:04:39;35.40;57.30
21275;DHT22;36472;52.170;20.884;2023-06-22T06:07:10;35.40;57.60
21275;DHT22;36472;52.170;20.884;2023-06-22T06:09:38;35.50;57.30
21275;DHT22;36472;52.170;20.884;2023-06-22T06:12:08;35.50;57.40
21275;DHT22;36472;52.170;20.884;2023-06-22T06:14:37;35.50;56.80
21275;DHT22;36472;52.170;20.884;2023-06-22T06:17:06;35.50;56.70
21275;DHT22;36472;52.170;20.884;2023-06-22T06:19:35;35.60;56.70
21275;DHT22;36472;52.170;20.884;2023-06-22T06:22:05;35.60;57.10
21275;DHT22;36472;52.170;20.884;2023-06-22T06:24:35;35.60;57.10
21275;DHT22;36472;52.170;20.884;2023-06-22T06:27:04;35.60;56.80
21275;DHT22;36472;52.170;20.884;2023-06-22T06:34:06;35.70;57.00
21275;DHT22;36472;52.170;20.884;2023-06-22T06:36:35;35.70;57.00
21275;DHT22;36472;52.170;20.884;2023-06-22T06:39:04;35.80;56.60
21275;DHT22;36472;52.170;20.884;2023-06-22T06:41:35;35.80;56.60
21275;DHT22;36472;52.170;20.884;2023-06-22T06:44:10;35.80;56.80
21275;DHT22;36472;52.170;20.884;2023-06-22T06:46:39;35.90;56.70
21275;DHT22;36472;52.170;20.884;2023-06-22T06:53:43;36.10;56.10
21275;DHT22;36472;52.170;20.884;2023-06-22T06:56:12;36.30;56.00
21275;DHT22;36472;52.170;20.884;2023-06-22T06:58:42;36.40;55.20
21275;DHT22;36472;52.170;20.884;2023-06-22T07:01:12;36.50;54.80
21275;DHT22;36472;52.170;20.884;2023-06-22T07:03:42;36.60;54.80
21275;DHT22;36472;52.170;20.884;2023-06-22T07:06:12;36.60;55.00
21275;DHT22;36472;52.170;20.884;2023-06-22T07:08:42;36.60;54.90
21275;DHT22;36472;52.170;20.884;2023-06-22T07:11:11;36.70;54.40
21275;DHT22;36472;52.170;20.884;2023-06-22T07:13:41;36.80;54.60
21275;DHT22;36472;52.170;20.884;2023-06-22T07:16:10;36.90;53.40
21275;DHT22;36472;52.170;20.884;2023-06-22T07:18:39;36.90;53.30
21275;DHT22;36472;52.170;20.884;2023-06-22T07:21:08;36.90;53.20
21275;DHT22;36472;52.170;20.884;2023-06-22T07:23:37;37.00;53.20
21275;DHT22;36472;52.170;20.884;2023-06-22T07:26:06;37.00;53.10
21275;DHT22;36472;52.170;20.884;2023-06-22T07:28:36;37.00;52.80
21275;DHT22;36472;52.170;20.884;2023-06-22T07:31:06;37.10;53.10
21275;DHT22;36472;52.170;20.884;2023-06-22T07:33:36;37.10;52.60
21275;DHT22;36472;52.170;20.884;2023-06-22T07:40:36;37.20;52.20
21275;DHT22;36472;52.170;20.884;2023-06-22T07:43:05;37.30;51.70
21275;DHT22;36472;52.170;20.884;2023-06-22T07:45:34;37.30;52.30
21275;DHT22;36472;52.170;20.884;2023-06-22T07:48:04;37.30;52.50
21275;DHT22;36472;52.170;20.884;2023-06-22T07:50:34;37.30;51.90
21275;DHT22;36472;52.170;20.884;2023-06-22T07:53:02;37.30;51.80
21275;DHT22;36472;52.170;20.884;2023-06-22T07:55:32;37.30;51.20
21275;DHT22;36472;52.170;20.884;2023-06-22T07:58:01;37.30;51.50
21275;DHT22;36472;52.170;20.884;2023-06-22T08:00:30;37.40;50.50
21275;DHT22;36472;52.170;20.884;2023-06-22T08:03:00;37.40;50.60
21275;DHT22;36472;52.170;20.884;2023-06-22T08:05:32;37.40;51.10
21275;DHT22;36472;52.170;20.884;2023-06-22T08:08:02;37.50;50.60
21275;DHT22;36472;52.170;20.884;2023-06-22T08:10:31;37.60;49.30
21275;DHT22;36472;52.170;20.884;2023-06-22T08:13:01;37.60;48.90
21275;DHT22;36472;52.170;20.884;2023-06-22T08:15:30;37.60;49.50
21275;DHT22;36472;52.170;20.884;2023-06-22T08:22:33;37.70;49.30
21275;DHT22;36472;52.170;20.884;2023-06-22T08:25:04;37.80;50.00
21275;DHT22;36472;52.170;20.884;2023-06-22T08:27:34;37.80;49.90
21275;DHT22;36472;52.170;20.884;2023-06-22T08:30:05;37.90;50.20
21275;DHT22;36472;52.170;20.884;2023-06-22T08:32:35;38.00;49.20
21275;DHT22;36472;52.170;20.884;2023-06-22T08:35:05;38.00;48.70
21275;DHT22;36472;52.170;20.884;2023-06-22T08:37:37;38.00;48.70
21275;DHT22;36472;52.170;20.884;2023-06-22T08:40:08;38.10;47.90
21275;DHT22;36472;52.170;20.884;2023-06-22T08:42:40;38.10;47.60
21275;DHT22;36472;52.170;20.884;2023-06-22T08:45:10;38.10;47.90
21275;DHT22;36472;52.170;20.884;2023-06-22T08:47:40;38.10;47.70
21275;DHT22;36472;52.170;20.884;2023-06-22T08:50:10;38.10;47.50
21275;DHT22;36472;52.170;20.884;2023-06-22T08:52:42;38.20;47.00
21275;DHT22;36472;52.170;20.884;2023-06-22T08:55:11;38.20;48.00
21275;DHT22;36472;52.170;20.884;2023-06-22T08:57:40;38.20;46.10
21275;DHT22;36472;52.170;20.884;2023-06-22T09:04:42;38.20;46.20
21275;DHT22;36472;52.170;20.884;2023-06-22T09:07:11;38.30;45.90
21275;DHT22;36472;52.170;20.884;2023-06-22T09:09:42;38.30;44.60
21275;DHT22;36472;52.170;20.884;2023-06-22T09:12:11;38.30;45.20
21275;DHT22;36472;52.170;20.884;2023-06-22T09:14:40;38.30;45.60
21275;DHT22;36472;52.170;20.884;2023-06-22T09:17:09;38.30;44.80
21275;DHT22;36472;52.170;20.884;2023-06-22T09:19:38;38.30;45.10
21275;DHT22;36472;52.170;20.884;2023-06-22T09:22:07;38.40;44.00
21275;DHT22;36472;52.170;20.884;2023-06-22T09:24:36;38.40;43.80
21275;DHT22;36472;52.170;20.884;2023-06-22T09:27:06;38.40;43.90
21275;DHT22;36472;52.170;20.884;2023-06-22T09:29:36;38.40;43.90
21275;DHT22;36472;52.170;20.884;2023-06-22T09:32:05;38.50;44.30
21275;DHT22;36472;52.170;20.884;2023-06-22T09:34:36;38.50;44.40
21275;DHT22;36472;52.170;20.884;2023-06-22T09:37:05;38.60;43.20
21275;DHT22;36472;52.170;20.884;2023-06-22T09:39:34;38.60;44.00
21275;DHT22;36472;52.170;20.884;2023-06-22T09:42:06;38.70;42.30
21275;DHT22;36472;52.170;20.884;2023-06-22T09:44:35;38.70;43.00
21275;DHT22;36472;52.170;20.884;2023-06-22T09:47:05;38.80;42.90
21275;DHT22;36472;52.170;20.884;2023-06-22T09:49:35;38.90;43.00
21275;DHT22;36472;52.170;20.884;2023-06-22T09:52:15;39.00;42.80
21275;DHT22;36472;52.170;20.884;2023-06-22T09:59:17;39.20;43.30
21275;DHT22;36472;52.170;20.884;2023-06-22T10:01:46;39.30;43.50
21275;DHT22;36472;52.170;20.884;2023-06-22T10:04:15;39.40;42.20
21275;DHT22;36472;52.170;20.884;2023-06-22T10:06:45;39.40;42.60
21275;DHT22;36472;52.170;20.884;2023-06-22T10:09:14;39.50;42.50
21275;DHT22;36472;52.170;20.884;2023-06-22T10:11:42;39.60;43.10
21275;DHT22;36472;52.170;20.884;2023-06-22T10:14:11;39.60;42.90
21275;DHT22;36472;52.170;20.884;2023-06-22T10:16:42;39.60;41.70
21275;DHT22;36472;52.170;20.884;2023-06-22T10:19:11;39.70;42.90
21275;DHT22;36472;52.170;20.884;2023-06-22T10:21:40;39.70;42.50
21275;DHT22;36472;52.170;20.884;2023-06-22T10:24:09;39.70;42.40
21275;DHT22;36472;52.170;20.884;2023-06-22T10:26:38;39.80;42.30
21275;DHT22;36472;52.170;20.884;2023-06-22T10:29:07;39.70;42.60
21275;DHT22;36472;52.170;20.884;2023-06-22T10:31:57;39.70;42.70
21275;DHT22;36472;52.170;20.884;2023-06-22T10:34:26;39.80;42.90
21275;DHT22;36472;52.170;20.884;2023-06-22T10:36:55;39.80;43.20
21275;DHT22;36472;52.170;20.884;2023-06-22T10:39:24;39.90;42.50
21275;DHT22;36472;52.170;20.884;2023-06-22T10:41:53;40.00;42.90
21275;DHT22;36472;52.170;20.884;2023-06-22T10:44:23;40.00;42.60
21275;DHT22;36472;52.170;20.884;2023-06-22T10:46:52;40.10;42.30
21275;DHT22;36472;52.170;20.884;2023-06-22T10:49:24;40.10;42.00
21275;DHT22;36472;52.170;20.884;2023-06-22T10:51:53;40.10;42.30
21275;DHT22;36472;52.170;20.884;2023-06-22T10:54:22;40.10;42.60
21275;DHT22;36472;52.170;20.884;2023-06-22T10:56:51;40.20;43.00
21275;DHT22;36472;52.170;20.884;2023-06-22T10:59:20;40.30;42.00
21275;DHT22;36472;52.170;20.884;2023-06-22T11:01:51;40.30;42.00
21275;DHT22;36472;52.170;20.884;2023-06-22T11:04:20;40.40;42.30
21275;DHT22;36472;52.170;20.884;2023-06-22T11:06:51;40.50;41.60
21275;DHT22;36472;52.170;20.884;2023-06-22T11:09:20;40.50;40.70
21275;DHT22;36472;52.170;20.884;2023-06-22T11:11:55;40.50;41.00
21275;DHT22;36472;52.170;20.884;2023-06-22T11:14:27;40.40;41.50
21275;DHT22;36472;52.170;20.884;2023-06-22T11:16:56;40.50;42.20
21275;DHT22;36472;52.170;20.884;2023-06-22T11:19:25;40.40;41.60
21275;DHT22;36472;52.170;20.884;2023-06-22T11:21:55;40.40;41.50
21275;DHT22;36472;52.170;20.884;2023-06-22T11:24:24;40.40;41.80
21275;DHT22;36472;52.170;20.884;2023-06-22T11:26:53;40.40;41.20
21275;DHT22;36472;52.170;20.884;2023-06-22T11:29:25;40.40;41.80
21275;DHT22;36472;52.170;20.884;2023-06-22T11:32:05;40.40;41.40
21275;DHT22;36472;52.170;20.884;2023-06-22T11:34:38;40.40;41.60
21275;DHT22;36472;52.170;20.884;2023-06-22T11:37:08;40.40;41.10
21275;DHT22;36472;52.170;20.884;2023-06-22T11:39:37;40.40;41.20
21275;DHT22;36472;52.170;20.884;2023-06-22T11:42:14;40.40;41.40
21275;DHT22;36472;52.170;20.884;2023-06-22T11:44:44;40.30;41.50
21275;DHT22;36472;52.170;20.884;2023-06-22T11:47:12;40.40;41.10
21275;DHT22;36472;52.170;20.884;2023-06-22T11:49:42;40.40;41.10
21275;DHT22;36472;52.170;20.884;2023-06-22T11:52:12;40.40;41.30
21275;DHT22;36472;52.170;20.884;2023-06-22T11:54:41;40.30;41.20
21275;DHT22;36472;52.170;20.884;2023-06-22T12:01:41;40.20;40.70
21275;DHT22;36472;52.170;20.884;2023-06-22T12:04:10;40.20;41.20
21275;DHT22;36472;52.170;20.884;2023-06-22T12:06:39;40.20;40.40
21275;DHT22;36472;52.170;20.884;2023-06-22T12:09:10;40.20;41.10
21275;DHT22;36472;52.170;20.884;2023-06-22T12:11:41;40.30;41.50
21275;DHT22;36472;52.170;20.884;2023-06-22T12:14:10;40.30;40.70
21275;DHT22;36472;52.170;20.884;2023-06-22T12:16:39;40.30;40.90
21275;DHT22;36472;52.170;20.884;2023-06-22T12:19:08;40.30;41.00
21275;DHT22;36472;52.170;20.884;2023-06-22T12:21:37;40.20;40.50
21275;DHT22;36472;52.170;20.884;2023-06-22T12:24:08;40.20;40.60
21275;DHT22;36472;52.170;20.884;2023-06-22T12:26:38;40.20;40.70
21275;DHT22;36472;52.170;20.884;2023-06-22T12:29:07;40.20;41.00
21275;DHT22;36472;52.170;20.884;2023-06-22T12:31:36;40.20;41.10
21275;DHT22;36472;52.170;20.884;2023-06-22T12:34:06;40.20;40.80
21275;DHT22;36472;52.170;20.884;2023-06-22T12:36:35;40.20;40.30
21275;DHT22;36472;52.170;20.884;2023-06-22T12:39:04;40.20;39.00
21275;DHT22;36472;52.170;20.884;2023-06-22T12:41:35;40.20;39.10
21275;DHT22;36472;52.170;20.884;2023-06-22T12:44:04;40.20;38.60
21275;DHT22;36472;52.170;20.884;2023-06-22T12:46:33;40.20;39.70
21275;DHT22;36472;52.170;20.884;2023-06-22T12:49:05;40.20;40.20
21275;DHT22;36472;52.170;20.884;2023-06-22T12:51:39;40.20;40.60
21275;DHT22;36472;52.170;20.884;2023-06-22T12:54:09;40.20;40.10
21275;DHT22;36472;52.170;20.884;2023-06-22T12:56:40;40.30;40.40
21275;DHT22;36472;52.170;20.884;2023-06-22T12:59:11;40.40;39.30
21275;DHT22;36472;52.170;20.884;2023-06-22T13:06:11;40.30;39.10
21275;DHT22;36472;52.170;20.884;2023-06-22T13:08:40;40.40;39.80
21275;DHT22;36472;52.170;20.884;2023-06-22T13:11:12;40.40;39.10
21275;DHT22;36472;52.170;20.884;2023-06-22T13:13:44;40.40;39.00
21275;DHT22;36472;52.170;20.884;2023-06-22T13:16:14;40.40;39.10
21275;DHT22;36472;52.170;20.884;2023-06-22T13:18:43;40.50;38.90
21275;DHT22;36472;52.170;20.884;2023-06-22T13:21:12;40.50;38.80
21275;DHT22;36472;52.170;20.884;2023-06-22T13:23:41;40.50;38.90
21275;DHT22;36472;52.170;20.884;2023-06-22T13:26:10;40.50;39.00
21275;DHT22;36472;52.170;20.884;2023-06-22T13:28:39;40.40;38.60
21275;DHT22;36472;52.170;20.884;2023-06-22T13:31:10;40.40;37.80
21275;DHT22;36472;52.170;20.884;2023-06-22T13:33:39;40.50;38.40
21275;DHT22;36472;52.170;20.884;2023-06-22T13:36:08;40.50;38.70
21275;DHT22;36472;52.170;20.884;2023-06-22T13:38:37;40.50;38.40
21275;DHT22;36472;52.170;20.884;2023-06-22T13:41:06;40.50;38.80
21275;DHT22;36472;52.170;20.884;2023-06-22T13:43:35;40.60;38.30
21275;DHT22;36472;52.170;20.884;2023-06-22T13:46:04;40.60;38.70
21275;DHT22;36472;52.170;20.884;2023-06-22T13:48:34;40.60;38.90
21275;DHT22;36472;52.170;20.884;2023-06-22T13:51:04;40.70;39.00
21275;DHT22;36472;52.170;20.884;2023-06-22T13:53:33;40.70;38.40
21275;DHT22;36472;52.170;20.884;2023-06-22T13:56:03;40.70;37.80
21275;DHT22;36472;52.170;20.884;2023-06-22T13:58:32;40.70;37.40
21275;DHT22;36472;52.170;20.884;2023-06-22T14:01:01;40.70;37.90
21275;DHT22;36472;52.170;20.884;2023-06-22T14:03:30;40.70;38.20
21275;DHT22;36472;52.170;20.884;2023-06-22T14:06:00;40.70;37.60
21275;DHT22;36472;52.170;20.884;2023-06-22T14:08:29;40.70;38.10
21275;DHT22;36472;52.170;20.884;2023-06-22T14:15:40;40.80;37.00
21275;DHT22;36472;52.170;20.884;2023-06-22T14:18:10;40.90;37.60
21275;DHT22;36472;52.170;20.884;2023-06-22T14:20:39;40.90;38.40
21275;DHT22;36472;52.170;20.884;2023-06-22T14:23:09;40.80;37.90
21275;DHT22;36472;52.170;20.884;2023-06-22T14:30:11;40.90;38.50
21275;DHT22;36472;52.170;20.884;2023-06-22T14:37:11;41.00;38.10
21275;DHT22;36472;52.170;20.884;2023-06-22T14:39:41;41.10;36.90
21275;DHT22;36472;52.170;20.884;2023-06-22T14:42:11;41.00;36.90
21275;DHT22;36472;52.170;20.884;2023-06-22T14:44:58;40.90;36.80
21275;DHT22;36472;52.170;20.884;2023-06-22T14:47:27;40.90;37.30
21275;DHT22;36472;52.170;20.884;2023-06-22T14:49:56;40.90;37.40
21275;DHT22;36472;52.170;20.884;2023-06-22T14:52:25;40.90;37.70
21275;DHT22;36472;52.170;20.884;2023-06-22T14:54:55;40.90;37.20
21275;DHT22;36472;52.170;20.884;2023-06-22T14:57:25;40.80;37.70
21275;DHT22;36472;52.170;20.884;2023-06-22T15:04:26;40.90;37.70
21275;DHT22;36472;52.170;20.884;2023-06-22T15:06:59;40.90;37.60
21275;DHT22;36472;52.170;20.884;2023-06-22T15:09:28;40.80;37.80
21275;DHT22;36472;52.170;20.884;2023-06-22T15:11:58;40.80;37.30
21275;DHT22;36472;52.170;20.884;2023-06-22T15:14:28;40.70;38.00
21275;DHT22;36472;52.170;20.884;2023-06-22T15:16:58;40.70;37.80
21275;DHT22;36472;52.170;20.884;2023-06-22T15:19:27;40.70;37.70
21275;DHT22;36472;52.170;20.884;2023-06-22T15:21:56;40.70;37.30
21275;DHT22;36472;52.170;20.884;2023-06-22T15:24:26;40.80;36.80
21275;DHT22;36472;52.170;20.884;2023-06-22T15:26:55;40.80;36.60
21275;DHT22;36472;52.170;20.884;2023-06-22T15:29:25;40.90;36.60
21275;DHT22;36472;52.170;20.884;2023-06-22T15:31:54;40.90;37.00
21275;DHT22;36472;52.170;20.884;2023-06-22T15:34:23;40.90;37.40
21275;DHT22;36472;52.170;20.884;2023-06-22T15:36:52;40.80;36.80
21275;DHT22;36472;52.170;20.884;2023-06-22T15:39:21;40.80;36.50
21275;DHT22;36472;52.170;20.884;2023-06-22T15:41:53;40.80;37.10
21275;DHT22;36472;52.170;20.884;2023-06-22T15:44:24;40.80;36.90
21275;DHT22;36472;52.170;20.884;2023-06-22T15:46:53;40.70;36.30
21275;DHT22;36472;52.170;20.884;2023-06-22T15:49:23;40.80;36.30
21275;DHT22;36472;52.170;20.884;2023-06-22T15:51:51;40.70;36.30
21275;DHT22;36472;52.170;20.884;2023-06-22T15:58:53;40.70;35.70
21275;DHT22;36472;52.170;20.884;2023-06-22T16:01:25;40.60;35.10
21275;DHT22;36472;52.170;20.884;2023-06-22T16:03:54;40.60;35.30
21275;DHT22;36472;52.170;20.884;2023-06-22T16:06:23;40.60;35.70
21275;DHT22;36472;52.170;20.884;2023-06-22T16:08:52;40.60;35.50
21275;DHT22;36472;52.170;20.884;2023-06-22T16:11:21;40.60;35.70
21275;DHT22;36472;52.170;20.884;2023-06-22T16:13:51;40.60;35.30
21275;DHT22;36472;52.170;20.884;2023-06-22T16:16:19;40.60;35.80
21275;DHT22;36472;52.170;20.884;2023-06-22T16:18:50;40.60;36.10
21275;DHT22;36472;52.170;20.884;2023-06-22T16:21:19;40.70;35.80
21275;DHT22;36472;52.170;20.884;2023-06-22T16:23:49;40.60;35.90
21275;DHT22;36472;52.170;20.884;2023-06-22T16:26:17;40.60;36.50
21275;DHT22;36472;52.170;20.884;2023-06-22T16:28:47;40.60;35.50
21275;DHT22;36472;52.170;20.884;2023-06-22T16:31:16;40.60;36.00
21275;DHT22;36472;52.170;20.884;2023-06-22T16:33:45;40.60;35.60
21275;DHT22;36472;52.170;20.884;2023-06-22T16:36:18;40.50;35.10
21275;DHT22;36472;52.170;20.884;2023-06-22T16:43:20;40.50;35.70
21275;DHT22;36472;52.170;20.884;2023-06-22T16:45:49;40.40;35.70
21275;DHT22;36472;52.170;20.884;2023-06-22T16:48:18;40.40;35.40
21275;DHT22;36472;52.170;20.884;2023-06-22T16:50:47;40.40;36.10